Disclaimer

Please do not use the information listed here in-flight or in-navigation, as they are not provided to us by the airports but are provided by volunteers, so they might be outdated.

Search


Regions


Airport information page

Radio informations:
AWOS - 122.55 MHz

Airport informations:
Latitude: 67° 32' 45.00" N
Longitude: 064° 01' 53.00" W
Elevation: 21 feet - 6 meters
Operating hours: N/A
Operating agency: Civil government, landing fees and diplomatic clearance may be required
Timezone: Second Sunday in March at 0200 to first Sunday in November at 0200 local time (Exception Arizona and that portion of Indiana in the Eastern Time Zone)
Fuel: Jet A1, without icing nhibitor.

Runway information:
03T/21T - 3800 x 100 feet< - >1158 x 30 meters

Recent METARs:
CYVM 181600Z 20012KT 15SM FEW120 BKN250 M19/M23 A2989 RMK AC1CC6 SLP124
CYVM 181700Z 22007KT 170V280 15SM FEW070 FEW120 OVC250 M18/M22 A2991 RMK AC1AC2CC6 AC TR SLP129
CYVM 181700Z 22007KT 170V280 15SM FEW070 FEW120 OVC250 M18/M22 A2991 RMK AC1AC2CC6 AC TR SLP129

Airport on the map: